sensor_id;sensor_type;location;lat;lon;timestamp;temperature;humidity
29093;DHT22;16167;48.768;14.984;2022-10-19T00:01:03;12.80;98.10
29093;DHT22;16167;48.768;14.984;2022-10-19T00:03:32;12.80;96.00
29093;DHT22;16167;48.768;14.984;2022-10-19T00:06:09;12.80;96.20
29093;DHT22;16167;48.768;14.984;2022-10-19T00:08:38;12.70;97.40
29093;DHT22;16167;48.768;14.984;2022-10-19T00:11:06;12.70;96.90
29093;DHT22;16167;48.768;14.984;2022-10-19T00:13:36;12.70;96.80
29093;DHT22;16167;48.768;14.984;2022-10-19T00:16:08;12.70;95.90
29093;DHT22;16167;48.768;14.984;2022-10-19T00:18:38;12.60;96.60
29093;DHT22;16167;48.768;14.984;2022-10-19T00:21:08;12.60;97.80
29093;DHT22;16167;48.768;14.984;2022-10-19T00:23:36;12.60;97.50
29093;DHT22;16167;48.768;14.984;2022-10-19T00:26:05;12.60;97.00
29093;DHT22;16167;48.768;14.984;2022-10-19T00:28:33;12.60;98.20
29093;DHT22;16167;48.768;14.984;2022-10-19T00:31:04;12.60;97.20
29093;DHT22;16167;48.768;14.984;2022-10-19T00:33:32;12.60;98.20
29093;DHT22;16167;48.768;14.984;2022-10-19T00:36:01;12.60;97.70
29093;DHT22;16167;48.768;14.984;2022-10-19T00:38:29;12.60;98.20
29093;DHT22;16167;48.768;14.984;2022-10-19T00:40:57;12.60;97.90
29093;DHT22;16167;48.768;14.984;2022-10-19T00:43:29;12.50;95.30
29093;DHT22;16167;48.768;14.984;2022-10-19T00:45:57;12.50;97.20
29093;DHT22;16167;48.768;14.984;2022-10-19T00:48:29;12.50;97.80
29093;DHT22;16167;48.768;14.984;2022-10-19T00:50:58;12.50;97.10
29093;DHT22;16167;48.768;14.984;2022-10-19T00:53:28;12.50;96.00
29093;DHT22;16167;48.768;14.984;2022-10-19T00:55:58;12.40;96.50
29093;DHT22;16167;48.768;14.984;2022-10-19T00:58:29;12.50;95.90
29093;DHT22;16167;48.768;14.984;2022-10-19T01:01:00;12.40;97.20
29093;DHT22;16167;48.768;14.984;2022-10-19T01:03:30;12.40;96.80
29093;DHT22;16167;48.768;14.984;2022-10-19T01:06:01;12.40;95.70
29093;DHT22;16167;48.768;14.984;2022-10-19T01:08:30;12.40;95.30
29093;DHT22;16167;48.768;14.984;2022-10-19T01:11:06;12.40;96.40
29093;DHT22;16167;48.768;14.984;2022-10-19T01:13:46;12.40;95.20
29093;DHT22;16167;48.768;14.984;2022-10-19T01:16:24;12.40;96.00
29093;DHT22;16167;48.768;14.984;2022-10-19T01:19:01;12.40;94.90
29093;DHT22;16167;48.768;14.984;2022-10-19T01:21:35;12.30;94.80
29093;DHT22;16167;48.768;14.984;2022-10-19T01:24:31;12.30;95.00
29093;DHT22;16167;48.768;14.984;2022-10-19T01:27:34;12.30;96.50
29093;DHT22;16167;48.768;14.984;2022-10-19T01:30:12;12.20;95.50
29093;DHT22;16167;48.768;14.984;2022-10-19T01:32:50;12.20;94.90
29093;DHT22;16167;48.768;14.984;2022-10-19T01:35:25;12.20;94.90
29093;DHT22;16167;48.768;14.984;2022-10-19T01:38:02;12.20;95.20
29093;DHT22;16167;48.768;14.984;2022-10-19T01:40:38;12.20;94.90
29093;DHT22;16167;48.768;14.984;2022-10-19T01:43:14;12.20;94.80
29093;DHT22;16167;48.768;14.984;2022-10-19T01:45:49;12.10;93.80
29093;DHT22;16167;48.768;14.984;2022-10-19T01:48:22;12.20;95.20
29093;DHT22;16167;48.768;14.984;2022-10-19T01:50:57;12.10;95.40
29093;DHT22;16167;48.768;14.984;2022-10-19T01:53:29;12.10;95.80
29093;DHT22;16167;48.768;14.984;2022-10-19T01:56:00;12.10;95.70
29093;DHT22;16167;48.768;14.984;2022-10-19T01:58:32;12.10;97.00
29093;DHT22;16167;48.768;14.984;2022-10-19T02:01:05;12.10;96.50
29093;DHT22;16167;48.768;14.984;2022-10-19T02:03:41;12.10;97.60
29093;DHT22;16167;48.768;14.984;2022-10-19T02:06:10;12.00;97.50
29093;DHT22;16167;48.768;14.984;2022-10-19T02:08:43;12.00;98.50
29093;DHT22;16167;48.768;14.984;2022-10-19T02:11:13;12.00;97.20
29093;DHT22;16167;48.768;14.984;2022-10-19T02:13:43;12.00;96.60
29093;DHT22;16167;48.768;14.984;2022-10-19T02:16:16;12.00;96.60
29093;DHT22;16167;48.768;14.984;2022-10-19T02:18:48;12.00;96.50
29093;DHT22;16167;48.768;14.984;2022-10-19T02:21:17;11.90;96.60
29093;DHT22;16167;48.768;14.984;2022-10-19T02:23:46;11.90;96.50
29093;DHT22;16167;48.768;14.984;2022-10-19T02:26:19;11.90;96.50
29093;DHT22;16167;48.768;14.984;2022-10-19T02:28:48;11.90;96.00
29093;DHT22;16167;48.768;14.984;2022-10-19T02:31:18;11.80;95.80
29093;DHT22;16167;48.768;14.984;2022-10-19T02:33:46;11.80;95.40
29093;DHT22;16167;48.768;14.984;2022-10-19T02:36:14;11.80;95.90
29093;DHT22;16167;48.768;14.984;2022-10-19T02:38:42;11.80;94.70
29093;DHT22;16167;48.768;14.984;2022-10-19T02:41:14;11.80;95.60
29093;DHT22;16167;48.768;14.984;2022-10-19T02:43:48;11.70;95.70
29093;DHT22;16167;48.768;14.984;2022-10-19T02:46:22;11.70;94.70
29093;DHT22;16167;48.768;14.984;2022-10-19T02:48:51;11.60;95.60
29093;DHT22;16167;48.768;14.984;2022-10-19T02:51:30;11.60;94.80
29093;DHT22;16167;48.768;14.984;2022-10-19T02:53:58;11.50;94.60
29093;DHT22;16167;48.768;14.984;2022-10-19T02:56:31;11.50;94.50
29093;DHT22;16167;48.768;14.984;2022-10-19T02:58:59;11.50;95.40
29093;DHT22;16167;48.768;14.984;2022-10-19T03:01:29;11.50;96.20
29093;DHT22;16167;48.768;14.984;2022-10-19T03:03:57;11.40;97.50
29093;DHT22;16167;48.768;14.984;2022-10-19T03:06:25;11.40;97.50
29093;DHT22;16167;48.768;14.984;2022-10-19T03:08:53;11.40;96.80
29093;DHT22;16167;48.768;14.984;2022-10-19T03:11:21;11.30;96.90
29093;DHT22;16167;48.768;14.984;2022-10-19T03:13:49;11.40;96.60
29093;DHT22;16167;48.768;14.984;2022-10-19T03:16:17;11.30;96.90
29093;DHT22;16167;48.768;14.984;2022-10-19T03:18:48;11.30;96.00
29093;DHT22;16167;48.768;14.984;2022-10-19T03:21:17;11.20;95.70
29093;DHT22;16167;48.768;14.984;2022-10-19T03:23:45;11.20;96.50
29093;DHT22;16167;48.768;14.984;2022-10-19T03:26:15;11.10;96.20
29093;DHT22;16167;48.768;14.984;2022-10-19T03:28:43;11.10;96.10
29093;DHT22;16167;48.768;14.984;2022-10-19T03:31:11;11.00;94.60
29093;DHT22;16167;48.768;14.984;2022-10-19T03:33:39;10.90;95.70
29093;DHT22;16167;48.768;14.984;2022-10-19T03:36:18;10.80;95.90
29093;DHT22;16167;48.768;14.984;2022-10-19T03:38:49;10.80;98.20
29093;DHT22;16167;48.768;14.984;2022-10-19T03:41:17;10.70;99.90
29093;DHT22;16167;48.768;14.984;2022-10-19T03:43:45;10.70;99.70
29093;DHT22;16167;48.768;14.984;2022-10-19T03:46:14;10.70;99.90
29093;DHT22;16167;48.768;14.984;2022-10-19T03:48:42;10.70;99.90
29093;DHT22;16167;48.768;14.984;2022-10-19T03:51:12;10.80;99.90
29093;DHT22;16167;48.768;14.984;2022-10-19T03:53:42;10.80;99.90
29093;DHT22;16167;48.768;14.984;2022-10-19T03:56:12;10.80;99.90
29093;DHT22;16167;48.768;14.984;2022-10-19T03:58:42;10.80;99.90
29093;DHT22;16167;48.768;14.984;2022-10-19T04:01:13;10.80;99.90
29093;DHT22;16167;48.768;14.984;2022-10-19T04:03:41;10.70;99.40
29093;DHT22;16167;48.768;14.984;2022-10-19T04:06:12;10.60;99.40
29093;DHT22;16167;48.768;14.984;2022-10-19T04:08:48;10.60;98.20
29093;DHT22;16167;48.768;14.984;2022-10-19T04:11:19;10.50;98.40
29093;DHT22;16167;48.768;14.984;2022-10-19T04:13:47;10.40;98.40
29093;DHT22;16167;48.768;14.984;2022-10-19T04:16:16;10.30;98.20
29093;DHT22;16167;48.768;14.984;2022-10-19T04:18:44;10.30;98.10
29093;DHT22;16167;48.768;14.984;2022-10-19T04:21:20;10.20;97.70
29093;DHT22;16167;48.768;14.984;2022-10-19T04:23:51;10.20;97.80
29093;DHT22;16167;48.768;14.984;2022-10-19T04:26:20;10.10;98.30
29093;DHT22;16167;48.768;14.984;2022-10-19T04:28:48;10.00;98.60
29093;DHT22;16167;48.768;14.984;2022-10-19T04:31:16;10.00;99.60
29093;DHT22;16167;48.768;14.984;2022-10-19T04:33:44;9.90;99.90
29093;DHT22;16167;48.768;14.984;2022-10-19T04:36:17;9.90;99.90
29093;DHT22;16167;48.768;14.984;2022-10-19T04:38:45;9.90;99.90
29093;DHT22;16167;48.768;14.984;2022-10-19T04:41:17;9.90;99.90
29093;DHT22;16167;48.768;14.984;2022-10-19T04:43:45;9.80;99.90
29093;DHT22;16167;48.768;14.984;2022-10-19T04:46:15;9.90;99.90
29093;DHT22;16167;48.768;14.984;2022-10-19T04:48:45;9.80;99.90
29093;DHT22;16167;48.768;14.984;2022-10-19T04:51:13;9.80;99.90
29093;DHT22;16167;48.768;14.984;2022-10-19T04:53:42;9.80;99.90
29093;DHT22;16167;48.768;14.984;2022-10-19T04:56:12;9.90;99.90
29093;DHT22;16167;48.768;14.984;2022-10-19T04:58:42;10.00;99.90
29093;DHT22;16167;48.768;14.984;2022-10-19T05:01:14;10.00;99.90
29093;DHT22;16167;48.768;14.984;2022-10-19T05:03:43;10.00;99.90
29093;DHT22;16167;48.768;14.984;2022-10-19T05:06:12;10.10;99.90
29093;DHT22;16167;48.768;14.984;2022-10-19T05:08:40;10.10;99.90
29093;DHT22;16167;48.768;14.984;2022-10-19T05:11:11;10.10;99.90
29093;DHT22;16167;48.768;14.984;2022-10-19T05:13:41;10.10;99.90
29093;DHT22;16167;48.768;14.984;2022-10-19T05:16:11;10.00;99.90
29093;DHT22;16167;48.768;14.984;2022-10-19T05:18:40;10.00;99.90
29093;DHT22;16167;48.768;14.984;2022-10-19T05:21:09;10.00;99.90
29093;DHT22;16167;48.768;14.984;2022-10-19T05:23:38;10.00;99.90
29093;DHT22;16167;48.768;14.984;2022-10-19T05:26:09;10.00;99.90
29093;DHT22;16167;48.768;14.984;2022-10-19T05:28:37;10.00;99.90
29093;DHT22;16167;48.768;14.984;2022-10-19T05:31:10;10.00;99.90
29093;DHT22;16167;48.768;14.984;2022-10-19T05:33:38;9.90;99.90
29093;DHT22;16167;48.768;14.984;2022-10-19T05:36:15;9.90;99.90
29093;DHT22;16167;48.768;14.984;2022-10-19T05:38:45;9.80;99.90
29093;DHT22;16167;48.768;14.984;2022-10-19T05:41:14;9.80;99.90
29093;DHT22;16167;48.768;14.984;2022-10-19T05:43:43;9.70;99.90
29093;DHT22;16167;48.768;14.984;2022-10-19T05:46:15;9.70;99.90
29093;DHT22;16167;48.768;14.984;2022-10-19T05:48:44;9.60;99.90
29093;DHT22;16167;48.768;14.984;2022-10-19T05:51:16;9.50;99.90
29093;DHT22;16167;48.768;14.984;2022-10-19T05:53:45;9.50;99.90
29093;DHT22;16167;48.768;14.984;2022-10-19T05:56:15;9.40;99.90
29093;DHT22;16167;48.768;14.984;2022-10-19T05:58:43;9.40;99.90
29093;DHT22;16167;48.768;14.984;2022-10-19T06:01:13;9.40;99.90
29093;DHT22;16167;48.768;14.984;2022-10-19T06:03:42;9.30;99.90
29093;DHT22;16167;48.768;14.984;2022-10-19T06:06:10;9.30;99.90
29093;DHT22;16167;48.768;14.984;2022-10-19T06:08:39;9.30;99.90
29093;DHT22;16167;48.768;14.984;2022-10-19T06:11:08;9.30;99.90
29093;DHT22;16167;48.768;14.984;2022-10-19T06:13:37;9.30;99.90
29093;DHT22;16167;48.768;14.984;2022-10-19T06:16:06;9.30;99.90
29093;DHT22;16167;48.768;14.984;2022-10-19T06:18:36;9.40;99.90
29093;DHT22;16167;48.768;14.984;2022-10-19T06:21:06;9.40;99.90
29093;DHT22;16167;48.768;14.984;2022-10-19T06:23:34;9.40;99.90
29093;DHT22;16167;48.768;14.984;2022-10-19T06:26:04;9.40;99.90
29093;DHT22;16167;48.768;14.984;2022-10-19T06:28:33;9.50;99.90
29093;DHT22;16167;48.768;14.984;2022-10-19T06:31:02;9.60;99.90
29093;DHT22;16167;48.768;14.984;2022-10-19T06:33:38;9.70;99.90
29093;DHT22;16167;48.768;14.984;2022-10-19T06:36:07;9.80;99.90
29093;DHT22;16167;48.768;14.984;2022-10-19T06:38:36;9.90;99.90
29093;DHT22;16167;48.768;14.984;2022-10-19T06:41:05;10.00;99.90
29093;DHT22;16167;48.768;14.984;2022-10-19T06:43:33;10.10;99.90
29093;DHT22;16167;48.768;14.984;2022-10-19T06:46:03;10.20;99.90
29093;DHT22;16167;48.768;14.984;2022-10-19T06:48:31;10.20;99.90
29093;DHT22;16167;48.768;14.984;2022-10-19T06:51:03;10.30;99.90
29093;DHT22;16167;48.768;14.984;2022-10-19T06:53:32;10.40;99.90
29093;DHT22;16167;48.768;14.984;2022-10-19T06:56:02;10.40;99.90
29093;DHT22;16167;48.768;14.984;2022-10-19T06:58:33;10.50;99.90
29093;DHT22;16167;48.768;14.984;2022-10-19T07:01:03;10.60;99.90
29093;DHT22;16167;48.768;14.984;2022-10-19T07:03:34;10.70;99.90
29093;DHT22;16167;48.768;14.984;2022-10-19T07:06:05;10.80;99.90
29093;DHT22;16167;48.768;14.984;2022-10-19T07:08:35;10.90;99.90
29093;DHT22;16167;48.768;14.984;2022-10-19T07:11:05;10.90;99.90
29093;DHT22;16167;48.768;14.984;2022-10-19T07:13:33;11.00;99.90
29093;DHT22;16167;48.768;14.984;2022-10-19T07:16:03;11.00;99.90
29093;DHT22;16167;48.768;14.984;2022-10-19T07:18:33;11.00;99.90
29093;DHT22;16167;48.768;14.984;2022-10-19T07:21:05;11.10;99.90
29093;DHT22;16167;48.768;14.984;2022-10-19T07:23:34;11.10;99.90
29093;DHT22;16167;48.768;14.984;2022-10-19T07:26:04;11.30;99.90
29093;DHT22;16167;48.768;14.984;2022-10-19T07:28:33;11.50;99.90
29093;DHT22;16167;48.768;14.984;2022-10-19T07:31:05;11.70;99.90
29093;DHT22;16167;48.768;14.984;2022-10-19T07:33:33;11.80;99.90
29093;DHT22;16167;48.768;14.984;2022-10-19T07:36:05;11.90;99.90
29093;DHT22;16167;48.768;14.984;2022-10-19T07:38:34;12.10;99.90
29093;DHT22;16167;48.768;14.984;2022-10-19T07:41:04;12.10;97.90
29093;DHT22;16167;48.768;14.984;2022-10-19T07:43:33;12.20;99.90
29093;DHT22;16167;48.768;14.984;2022-10-19T07:46:04;12.30;99.40
29093;DHT22;16167;48.768;14.984;2022-10-19T07:48:32;12.30;96.10
29093;DHT22;16167;48.768;14.984;2022-10-19T07:51:02;12.40;98.50
29093;DHT22;16167;48.768;14.984;2022-10-19T07:53:32;12.50;97.60
29093;DHT22;16167;48.768;14.984;2022-10-19T07:56:04;12.60;96.10
29093;DHT22;16167;48.768;14.984;2022-10-19T07:58:32;12.70;93.10
29093;DHT22;16167;48.768;14.984;2022-10-19T08:01:01;12.90;92.70
29093;DHT22;16167;48.768;14.984;2022-10-19T08:03:30;12.90;83.70
29093;DHT22;16167;48.768;14.984;2022-10-19T08:06:19;13.00;75.20
29093;DHT22;16167;48.768;14.984;2022-10-19T08:08:48;13.00;80.30
29093;DHT22;16167;48.768;14.984;2022-10-19T08:11:19;13.00;76.10
29093;DHT22;16167;48.768;14.984;2022-10-19T08:13:47;13.20;76.50
29093;DHT22;16167;48.768;14.984;2022-10-19T08:16:25;13.20;87.30
29093;DHT22;16167;48.768;14.984;2022-10-19T08:18:57;13.20;78.30
29093;DHT22;16167;48.768;14.984;2022-10-19T08:21:26;13.20;79.50
29093;DHT22;16167;48.768;14.984;2022-10-19T08:23:56;13.30;90.80
29093;DHT22;16167;48.768;14.984;2022-10-19T08:26:24;13.40;90.10
29093;DHT22;16167;48.768;14.984;2022-10-19T08:28:58;13.40;84.30
29093;DHT22;16167;48.768;14.984;2022-10-19T08:31:26;13.40;81.10
29093;DHT22;16167;48.768;14.984;2022-10-19T08:33:55;13.40;82.30
29093;DHT22;16167;48.768;14.984;2022-10-19T08:36:23;13.50;83.20
29093;DHT22;16167;48.768;14.984;2022-10-19T08:38:51;13.60;79.30
29093;DHT22;16167;48.768;14.984;2022-10-19T08:41:30;13.60;76.50
29093;DHT22;16167;48.768;14.984;2022-10-19T08:44:19;13.70;75.20
29093;DHT22;16167;48.768;14.984;2022-10-19T08:46:56;13.70;74.70
29093;DHT22;16167;48.768;14.984;2022-10-19T08:49:30;13.70;66.90
29093;DHT22;16167;48.768;14.984;2022-10-19T08:52:00;13.80;73.80
29093;DHT22;16167;48.768;14.984;2022-10-19T08:54:36;13.90;64.00
29093;DHT22;16167;48.768;14.984;2022-10-19T08:57:17;13.90;62.40
29093;DHT22;16167;48.768;14.984;2022-10-19T08:59:52;13.90;65.60
29093;DHT22;16167;48.768;14.984;2022-10-19T09:02:44;13.90;60.10
29093;DHT22;16167;48.768;14.984;2022-10-19T09:05:23;13.90;54.10
29093;DHT22;16167;48.768;14.984;2022-10-19T09:07:55;14.10;59.80
29093;DHT22;16167;48.768;14.984;2022-10-19T09:10:27;14.20;48.50
29093;DHT22;16167;48.768;14.984;2022-10-19T09:12:59;14.30;47.90
29093;DHT22;16167;48.768;14.984;2022-10-19T09:15:33;14.40;40.90
29093;DHT22;16167;48.768;14.984;2022-10-19T09:18:07;14.50;41.70
29093;DHT22;16167;48.768;14.984;2022-10-19T09:20:38;14.50;35.20
29093;DHT22;16167;48.768;14.984;2022-10-19T09:23:15;14.40;41.30
29093;DHT22;16167;48.768;14.984;2022-10-19T09:25:47;14.40;39.00
29093;DHT22;16167;48.768;14.984;2022-10-19T09:28:37;14.40;42.20
29093;DHT22;16167;48.768;14.984;2022-10-19T09:31:14;14.30;37.70
29093;DHT22;16167;48.768;14.984;2022-10-19T09:33:45;14.20;26.60
29093;DHT22;16167;48.768;14.984;2022-10-19T09:36:17;14.10;18.90
29093;DHT22;16167;48.768;14.984;2022-10-19T09:38:53;14.00;24.30
29093;DHT22;16167;48.768;14.984;2022-10-19T09:41:22;14.00;27.30
29093;DHT22;16167;48.768;14.984;2022-10-19T09:43:52;14.10;25.30
29093;DHT22;16167;48.768;14.984;2022-10-19T09:46:30;14.10;25.30
29093;DHT22;16167;48.768;14.984;2022-10-19T09:49:04;14.00;27.30
29093;DHT22;16167;48.768;14.984;2022-10-19T09:51:49;14.00;24.90
29093;DHT22;16167;48.768;14.984;2022-10-19T09:54:33;13.90;24.40
29093;DHT22;16167;48.768;14.984;2022-10-19T09:57:03;14.00;36.80
29093;DHT22;16167;48.768;14.984;2022-10-19T09:59:35;14.60;28.90
29093;DHT22;16167;48.768;14.984;2022-10-19T10:02:15;14.80;22.90
29093;DHT22;16167;48.768;14.984;2022-10-19T10:04:54;14.90;12.20
29093;DHT22;16167;48.768;14.984;2022-10-19T10:07:24;15.00;1.80
29093;DHT22;16167;48.768;14.984;2022-10-19T10:09:54;15.70;1.00
29093;DHT22;16167;48.768;14.984;2022-10-19T10:12:22;16.40;1.00
29093;DHT22;16167;48.768;14.984;2022-10-19T10:14:52;16.50;1.00
29093;DHT22;16167;48.768;14.984;2022-10-19T10:17:26;16.50;1.00
29093;DHT22;16167;48.768;14.984;2022-10-19T10:20:24;16.50;1.00
29093;DHT22;16167;48.768;14.984;2022-10-19T10:22:55;16.40;1.00
29093;DHT22;16167;48.768;14.984;2022-10-19T10:25:27;16.40;1.00
29093;DHT22;16167;48.768;14.984;2022-10-19T10:27:58;16.70;1.00
29093;DHT22;16167;48.768;14.984;2022-10-19T10:30:32;16.90;1.00
29093;DHT22;16167;48.768;14.984;2022-10-19T10:33:01;17.30;1.00
29093;DHT22;16167;48.768;14.984;2022-10-19T10:35:53;17.60;1.00
29093;DHT22;16167;48.768;14.984;2022-10-19T10:38:25;17.60;1.00
29093;DHT22;16167;48.768;14.984;2022-10-19T10:40:56;18.40;1.00
29093;DHT22;16167;48.768;14.984;2022-10-19T10:43:29;18.80;1.00
29093;DHT22;16167;48.768;14.984;2022-10-19T10:46:03;18.40;1.00
29093;DHT22;16167;48.768;14.984;2022-10-19T10:48:36;18.00;1.00
29093;DHT22;16167;48.768;14.984;2022-10-19T10:51:18;17.90;1.00
29093;DHT22;16167;48.768;14.984;2022-10-19T10:53:47;17.80;1.00
29093;DHT22;16167;48.768;14.984;2022-10-19T10:56:23;17.60;1.00
29093;DHT22;16167;48.768;14.984;2022-10-19T10:58:56;17.60;1.00
29093;DHT22;16167;48.768;14.984;2022-10-19T11:01:29;17.50;1.00
29093;DHT22;16167;48.768;14.984;2022-10-19T11:04:02;17.40;1.00
29093;DHT22;16167;48.768;14.984;2022-10-19T11:06:33;17.20;1.00
29093;DHT22;16167;48.768;14.984;2022-10-19T11:09:11;17.30;1.00
29093;DHT22;16167;48.768;14.984;2022-10-19T11:11:44;17.30;1.00
29093;DHT22;16167;48.768;14.984;2022-10-19T11:14:31;17.20;1.00
29093;DHT22;16167;48.768;14.984;2022-10-19T11:17:09;17.00;1.00
29093;DHT22;16167;48.768;14.984;2022-10-19T11:19:42;17.60;1.00
29093;DHT22;16167;48.768;14.984;2022-10-19T11:22:18;18.70;1.00
29093;DHT22;16167;48.768;14.984;2022-10-19T11:25:08;18.90;1.00
29093;DHT22;16167;48.768;14.984;2022-10-19T11:27:47;18.80;1.00
29093;DHT22;16167;48.768;14.984;2022-10-19T11:30:20;19.00;1.00
29093;DHT22;16167;48.768;14.984;2022-10-19T11:32:59;19.40;1.00
29093;DHT22;16167;48.768;14.984;2022-10-19T11:38:30;20.90;1.00
29093;DHT22;16167;48.768;14.984;2022-10-19T11:41:07;22.00;1.00
29093;DHT22;16167;48.768;14.984;2022-10-19T11:43:51;23.00;1.00
29093;DHT22;16167;48.768;14.984;2022-10-19T11:46:27;22.70;1.00
29093;DHT22;16167;48.768;14.984;2022-10-19T11:49:16;21.80;1.00
29093;DHT22;16167;48.768;14.984;2022-10-19T11:51:50;20.90;1.00
29093;DHT22;16167;48.768;14.984;2022-10-19T11:54:34;20.10;1.00
29093;DHT22;16167;48.768;14.984;2022-10-19T11:57:11;19.40;1.00
29093;DHT22;16167;48.768;14.984;2022-10-19T11:59:50;18.80;1.00
29093;DHT22;16167;48.768;14.984;2022-10-19T12:03:02;18.40;1.00
29093;DHT22;16167;48.768;14.984;2022-10-19T12:05:36;19.00;1.00
29093;DHT22;16167;48.768;14.984;2022-10-19T12:08:22;19.00;1.00
29093;DHT22;16167;48.768;14.984;2022-10-19T12:11:01;19.00;1.00
29093;DHT22;16167;48.768;14.984;2022-10-19T12:13:36;20.20;1.00
29093;DHT22;16167;48.768;14.984;2022-10-19T12:16:07;21.30;1.00
29093;DHT22;16167;48.768;14.984;2022-10-19T12:18:39;22.10;1.00
29093;DHT22;16167;48.768;14.984;2022-10-19T12:21:13;22.70;1.00
29093;DHT22;16167;48.768;14.984;2022-10-19T12:23:45;23.30;1.00
29093;DHT22;16167;48.768;14.984;2022-10-19T12:26:15;23.80;1.00
29093;DHT22;16167;48.768;14.984;2022-10-19T12:28:48;24.30;1.00
29093;DHT22;16167;48.768;14.984;2022-10-19T12:31:17;24.50;1.00
29093;DHT22;16167;48.768;14.984;2022-10-19T12:33:52;24.30;1.00
29093;DHT22;16167;48.768;14.984;2022-10-19T12:36:34;24.80;1.00
29093;DHT22;16167;48.768;14.984;2022-10-19T12:39:10;25.20;1.00
29093;DHT22;16167;48.768;14.984;2022-10-19T12:41:43;24.80;1.00
29093;DHT22;16167;48.768;14.984;2022-10-19T12:44:33;25.00;1.00
29093;DHT22;16167;48.768;14.984;2022-10-19T12:47:10;25.80;1.00
29093;DHT22;16167;48.768;14.984;2022-10-19T12:49:46;26.40;1.00
29093;DHT22;16167;48.768;14.984;2022-10-19T12:52:38;26.90;1.00
29093;DHT22;16167;48.768;14.984;2022-10-19T12:55:25;27.00;1.00
29093;DHT22;16167;48.768;14.984;2022-10-19T12:57:58;27.20;1.00
29093;DHT22;16167;48.768;14.984;2022-10-19T13:00:29;27.70;1.00
29093;DHT22;16167;48.768;14.984;2022-10-19T13:03:01;27.90;1.00
29093;DHT22;16167;48.768;14.984;2022-10-19T13:05:32;27.80;1.00
29093;DHT22;16167;48.768;14.984;2022-10-19T13:08:02;27.80;1.00
29093;DHT22;16167;48.768;14.984;2022-10-19T13:10:36;27.90;1.00
29093;DHT22;16167;48.768;14.984;2022-10-19T13:13:04;28.20;1.00
29093;DHT22;16167;48.768;14.984;2022-10-19T13:15:53;28.40;1.00
29093;DHT22;16167;48.768;14.984;2022-10-19T13:21:43;28.10;1.00
29093;DHT22;16167;48.768;14.984;2022-10-19T13:24:26;26.50;1.00
29093;DHT22;16167;48.768;14.984;2022-10-19T13:27:23;25.10;1.00
29093;DHT22;16167;48.768;14.984;2022-10-19T13:29:52;25.60;1.00
29093;DHT22;16167;48.768;14.984;2022-10-19T13:32:35;26.20;1.00
29093;DHT22;16167;48.768;14.984;2022-10-19T13:35:30;27.00;1.00
29093;DHT22;16167;48.768;14.984;2022-10-19T13:38:26;27.20;1.00
29093;DHT22;16167;48.768;14.984;2022-10-19T13:41:14;27.50;1.00
29093;DHT22;16167;48.768;14.984;2022-10-19T13:44:02;27.70;1.00
29093;DHT22;16167;48.768;14.984;2022-10-19T13:46:51;28.20;1.00
29093;DHT22;16167;48.768;14.984;2022-10-19T13:49:32;28.30;1.00
29093;DHT22;16167;48.768;14.984;2022-10-19T13:52:18;27.20;1.00
29093;DHT22;16167;48.768;14.984;2022-10-19T13:55:27;26.40;1.00
29093;DHT22;16167;48.768;14.984;2022-10-19T13:58:25;25.60;1.00
29093;DHT22;16167;48.768;14.984;2022-10-19T14:01:08;24.20;1.00
29093;DHT22;16167;48.768;14.984;2022-10-19T14:04:01;23.10;1.00
29093;DHT22;16167;48.768;14.984;2022-10-19T14:06:33;22.10;1.00
29093;DHT22;16167;48.768;14.984;2022-10-19T14:09:40;21.30;1.00
29093;DHT22;16167;48.768;14.984;2022-10-19T14:12:16;20.50;1.00
29093;DHT22;16167;48.768;14.984;2022-10-19T14:14:47;19.80;1.00
29093;DHT22;16167;48.768;14.984;2022-10-19T14:17:18;19.40;1.00
29093;DHT22;16167;48.768;14.984;2022-10-19T14:19:47;19.00;1.00
29093;DHT22;16167;48.768;14.984;2022-10-19T14:22:18;18.60;1.00
29093;DHT22;16167;48.768;14.984;2022-10-19T14:24:46;18.30;1.00
29093;DHT22;16167;48.768;14.984;2022-10-19T14:27:18;18.10;1.00
29093;DHT22;16167;48.768;14.984;2022-10-19T14:29:51;17.90;1.00
29093;DHT22;16167;48.768;14.984;2022-10-19T14:32:22;17.70;1.00
29093;DHT22;16167;48.768;14.984;2022-10-19T14:34:52;17.50;1.00
29093;DHT22;16167;48.768;14.984;2022-10-19T14:37:23;17.30;1.00
29093;DHT22;16167;48.768;14.984;2022-10-19T14:40:04;17.00;1.00
29093;DHT22;16167;48.768;14.984;2022-10-19T14:42:39;16.70;1.00
29093;DHT22;16167;48.768;14.984;2022-10-19T14:45:17;16.70;1.00
29093;DHT22;16167;48.768;14.984;2022-10-19T14:47:54;16.70;1.00
29093;DHT22;16167;48.768;14.984;2022-10-19T14:50:27;17.10;1.00
29093;DHT22;16167;48.768;14.984;2022-10-19T14:52:59;17.40;1.00
29093;DHT22;16167;48.768;14.984;2022-10-19T14:55:33;17.10;1.00
29093;DHT22;16167;48.768;14.984;2022-10-19T14:58:05;16.80;1.00
29093;DHT22;16167;48.768;14.984;2022-10-19T15:00:38;16.50;1.00
29093;DHT22;16167;48.768;14.984;2022-10-19T15:03:10;16.30;1.00
29093;DHT22;16167;48.768;14.984;2022-10-19T15:05:46;16.00;1.00
29093;DHT22;16167;48.768;14.984;2022-10-19T15:08:19;15.70;1.00
29093;DHT22;16167;48.768;14.984;2022-10-19T15:10:49;15.50;1.00
29093;DHT22;16167;48.768;14.984;2022-10-19T15:13:22;15.30;1.00
29093;DHT22;16167;48.768;14.984;2022-10-19T15:15:53;15.10;1.00
29093;DHT22;16167;48.768;14.984;2022-10-19T15:18:22;14.90;1.00
29093;DHT22;16167;48.768;14.984;2022-10-19T15:21:12;14.70;1.00
29093;DHT22;16167;48.768;14.984;2022-10-19T15:23:43;14.50;1.00
29093;DHT22;16167;48.768;14.984;2022-10-19T15:26:17;14.30;1.00
29093;DHT22;16167;48.768;14.984;2022-10-19T15:28:47;14.20;1.00
29093;DHT22;16167;48.768;14.984;2022-10-19T15:31:18;14.10;1.00
29093;DHT22;16167;48.768;14.984;2022-10-19T15:33:49;14.00;1.00
29093;DHT22;16167;48.768;14.984;2022-10-19T15:36:19;13.90;1.00
29093;DHT22;16167;48.768;14.984;2022-10-19T15:38:58;13.70;1.00
29093;DHT22;16167;48.768;14.984;2022-10-19T15:41:46;13.60;1.00
29093;DHT22;16167;48.768;14.984;2022-10-19T15:44:30;13.40;1.00
29093;DHT22;16167;48.768;14.984;2022-10-19T15:47:18;13.30;1.00
29093;DHT22;16167;48.768;14.984;2022-10-19T15:49:56;13.20;1.00
29093;DHT22;16167;48.768;14.984;2022-10-19T15:52:26;13.00;1.00
29093;DHT22;16167;48.768;14.984;2022-10-19T15:54:56;12.90;1.00
29093;DHT22;16167;48.768;14.984;2022-10-19T15:57:27;12.80;1.00
29093;DHT22;16167;48.768;14.984;2022-10-19T15:59:57;12.80;1.00
29093;DHT22;16167;48.768;14.984;2022-10-19T16:02:27;12.70;1.00
29093;DHT22;16167;48.768;14.984;2022-10-19T16:04:55;12.60;1.00
29093;DHT22;16167;48.768;14.984;2022-10-19T16:07:25;12.50;1.00